Portada
METAR-TAF:

METAR-TAF

Aeroports :

Port Vila, Éfaté, Vanuatu

latitud: 17-42S, longitud: 168-18E, altitud: 20 m

Observació

L'informe es va fer fa 27 minuts, a les 08:00 UTC
Vent 3 kt del Nord-Est
Temperatura 22°C
Humitat 78%
Pressió 1015 hPa
Visibilitat 10 km o més
Escasses núvols a una alçada de 2500 ft

METAR: NVVV 120800Z 05003KT 9999 FEW025 22/18 Q1015

Hora: 19:27 (08:27 UTC)

Pronòstic

L'informe es va fer fa 3 hores i 57 minuts, a les 04:30 UTC
Pronòstic vàlid del 12 a les 06 UTC al 13 a les 06 UTC
Vent 11 kt del Est/Sud-Est amb ràfegues de 21 kt
Visibilitat 10 km o més
Núvols disperses a una alçada de 2000 ft

TAF: NVVV 120430Z 1206/1306 11011G21KT 9999 SCT020

Observacions i pronòstics meteorològics de més de 4000 aeroports (METAR i TAF).

Les estacions disponibles són els punts grocs i vermells al mapa.

Posi el ratolí al punt desitjat per veure el nom de l'estació.

Feu clic per veure les observacions i els pronòstics meteorològics.

Per canviar el mapa: feu clic els botons verds amb una creu de color negre per apropar; al botó verd amb un guió per allunyar la imatge; o en les fletxes verdes per a mapes adjacents.


METAR-TAF: